Time;durP1;ratioP1;P1;durP2;ratioP2;P2;SDS_P1;SDS_P2;PMS_P1;PMS_P2;Temp;Humidity;BMP_temperature;BMP_pressure;BME280_temperature;BME280_humidity;BME280_pressure;Samples;Min_cycle;Max_cycle;Signal;HPM_P1;HPM_P2
2021/12/04 00:00:50;;;;;;;;;89.25;74.75;5.80;59.30;;;;;;5075531;28;8768;-75
2021/12/04 00:03:16;;;;;;;;;95.25;81.75;5.90;59.30;;;;;;5075372;28;9451;-77
2021/12/04 00:05:50;;;;;;;;;92.50;79.50;5.40;60.40;;;;;;5075506;28;8776;-77
2021/12/04 00:08:16;;;;;;;;;87.00;67.25;5.50;60.80;;;;;;5073819;28;8877;-76
2021/12/04 00:10:42;;;;;;;;;81.00;64.50;5.30;60.50;;;;;;5075359;28;8780;-77
2021/12/04 00:13:08;;;;;;;;;82.50;66.25;4.70;61.80;;;;;;5075280;28;8779;-77
2021/12/04 00:15:34;;;;;;;;;76.25;64.00;4.60;62.50;;;;;;5075332;28;8768;-77
2021/12/04 00:18:00;;;;;;;;;88.50;68.25;4.90;61.60;;;;;;5075200;28;8745;-76
2021/12/04 00:20:30;;;;;;;;;80.50;65.50;4.90;61.10;;;;;;5075489;28;8794;-75
2021/12/04 00:22:58;;;;;;;;;83.50;67.75;5.10;60.10;;;;;;5075130;28;8800;-75
2021/12/04 00:25:25;;;;;;;;;87.50;70.00;5.10;59.80;;;;;;5074155;28;8842;-75
2021/12/04 00:27:52;;;;;;;;;79.00;65.00;4.90;61.50;;;;;;5075207;28;8804;-75
2021/12/04 00:30:18;;;;;;;;;83.00;68.25;4.60;61.20;;;;;;5075031;28;8887;-75
2021/12/04 00:32:53;;;;;;;;;83.50;68.75;4.70;61.60;;;;;;5075082;28;8761;-76
2021/12/04 00:35:44;;;;;;;;;79.50;65.50;4.90;60.30;;;;;;5073885;28;8808;-76
2021/12/04 00:51:33;;;;;;;;;81.00;63.25;4.80;60.80;;;;;;5074746;28;8791;-75
2021/12/04 00:53:59;;;;;;;;;67.25;56.75;4.70;60.50;;;;;;5074596;28;8788;-76
2021/12/04 00:56:25;;;;;;;;;73.25;60.25;4.90;60.20;;;;;;5074446;28;8761;-75
2021/12/04 00:58:51;;;;;;;;;71.00;60.00;4.60;61.20;;;;;;5074864;28;8761;-75
2021/12/04 01:01:18;;;;;;;;;77.00;63.33;4.50;61.30;;;;;;5074519;28;8769;-75
2021/12/04 01:03:45;;;;;;;;;77.25;63.00;4.50;61.20;;;;;;5074491;28;8768;-76
2021/12/04 01:06:10;;;;;;;;;83.00;65.75;4.30;61.70;;;;;;5073439;28;8831;-75
2021/12/04 01:08:36;;;;;;;;;76.50;64.25;4.40;61.70;;;;;;5074687;28;8768;-76
2021/12/04 01:11:02;;;;;;;;;84.75;69.00;5.10;59.70;;;;;;5074622;28;9457;-77
2021/12/04 01:13:29;;;;;;;;;83.00;65.00;4.80;59.70;;;;;;5074620;28;8865;-76
2021/12/04 01:15:55;;;;;;;;;79.75;65.75;4.60;60.80;;;;;;5074411;28;8784;-76
2021/12/04 01:18:21;;;;;;;;;77.75;64.00;5.00;60.50;;;;;;5074322;28;8838;-76
2021/12/04 01:20:47;;;;;;;;;78.25;66.00;5.20;58.90;;;;;;5074329;28;8798;-76
2021/12/04 01:23:15;;;;;;;;;84.00;69.25;5.30;58.60;;;;;;5074208;28;8800;-76
2021/12/04 01:25:41;;;;;;;;;83.25;67.00;5.00;58.90;;;;;;5074248;28;8798;-75
2021/12/04 01:28:07;;;;;;;;;82.00;66.00;5.10;59.10;;;;;;5074212;28;8835;-75
2021/12/04 01:30:33;;;;;;;;;81.00;66.75;5.20;58.70;;;;;;5074191;28;8765;-76
2021/12/04 01:32:59;;;;;;;;;81.00;66.75;5.10;59.30;;;;;;5074250;28;8773;-76
2021/12/04 01:35:25;;;;;;;;;75.75;63.25;5.30;58.70;;;;;;5074190;28;8772;-75
2021/12/04 01:37:51;;;;;;;;;78.00;65.25;5.20;58.30;;;;;;5074191;28;8779;-76
2021/12/04 01:40:18;;;;;;;;;74.00;62.00;4.80;59.70;;;;;;5073105;28;8773;-76
2021/12/04 01:42:44;;;;;;;;;80.00;66.00;4.80;59.90;;;;;;5074246;28;8796;-76
2021/12/04 01:45:11;;;;;;;;;84.75;69.50;4.90;59.80;;;;;;5074103;28;8748;-76
2021/12/04 01:47:37;;;;;;;;;86.00;70.00;5.20;59.50;;;;;;5074313;28;8768;-75
2021/12/04 01:50:04;;;;;;;;;80.75;66.75;5.50;58.20;;;;;;5074107;28;8776;-76
2021/12/04 01:52:30;;;;;;;;;84.00;69.00;5.40;58.40;;;;;;5073972;28;8784;-76
2021/12/04 01:54:57;;;;;;;;;84.00;68.50;5.10;58.90;;;;;;5073982;28;8799;-76
2021/12/04 01:57:25;;;;;;;;;81.50;68.25;5.50;58.50;;;;;;5072893;28;8793;-75
2021/12/04 01:59:52;;;;;;;;;82.00;67.00;5.50;58.00;;;;;;5073986;28;8788;-75
2021/12/04 02:02:19;;;;;;;;;82.50;68.25;5.30;58.20;;;;;;5072788;28;8927;-76
2021/12/04 02:04:45;;;;;;;;;75.50;61.75;5.40;58.30;;;;;;5074187;28;8768;-76
2021/12/04 02:07:13;;;;;;;;;74.75;62.75;5.20;58.20;;;;;;5073704;28;8808;-75
2021/12/04 02:09:39;;;;;;;;;72.75;61.00;4.60;60.30;;;;;;5073961;28;8863;-76
2021/12/04 02:12:07;;;;;;;;;68.75;58.25;4.80;59.70;;;;;;5073939;28;8803;-76
2021/12/04 02:14:34;;;;;;;;;74.75;61.50;4.60;60.00;;;;;;5073940;28;8769;-75
2021/12/04 02:17:01;;;;;;;;;82.50;67.00;4.40;61.50;;;;;;5073806;28;8859;-76
2021/12/04 02:19:27;;;;;;;;;75.00;62.50;4.70;60.80;;;;;;5077337;28;8760;-76
2021/12/04 02:21:53;;;;;;;;;76.00;62.75;4.50;60.90;;;;;;5077237;28;8839;-76
2021/12/04 02:24:19;;;;;;;;;72.00;60.50;4.70;60.50;;;;;;5077313;28;8773;-76
2021/12/04 02:26:46;;;;;;;;;80.75;66.00;4.70;60.10;;;;;;5077264;28;8792;-76
2021/12/04 02:29:13;;;;;;;;;76.25;63.00;4.90;59.90;;;;;;5077435;28;8737;-76
2021/12/04 02:31:39;;;;;;;;;80.50;66.00;4.70;59.90;;;;;;5077619;28;8840;-77
2021/12/04 02:34:06;;;;;;;;;69.75;59.25;4.50;61.20;;;;;;5077578;28;8849;-76
2021/12/04 02:36:32;;;;;;;;;65.25;55.25;4.60;60.70;;;;;;5077134;28;8829;-76
2021/12/04 02:38:58;;;;;;;;;71.25;59.25;4.90;59.50;;;;;;5077485;28;9468;-75
2021/12/04 02:41:24;;;;;;;;;64.00;55.00;4.70;59.60;;;;;;5077162;28;8764;-76
2021/12/04 02:43:50;;;;;;;;;63.00;54.00;4.70;59.60;;;;;;5077310;28;9435;-75
2021/12/04 02:46:17;;;;;;;;;63.00;52.75;4.50;59.90;;;;;;5077089;28;8760;-76
2021/12/04 02:48:45;;;;;;;;;64.00;54.75;4.70;58.90;;;;;;5077140;28;8854;-76
2021/12/04 02:51:11;;;;;;;;;64.00;55.00;5.00;58.70;;;;;;5076932;28;8834;-75
2021/12/04 02:53:38;;;;;;;;;72.25;59.75;5.20;57.50;;;;;;5077244;28;8769;-76
2021/12/04 02:56:05;;;;;;;;;64.50;54.25;5.00;58.30;;;;;;5076898;28;8788;-75
2021/12/04 02:58:33;;;;;;;;;63.00;53.75;4.90;58.30;;;;;;5059635;28;8801;-76
2021/12/04 03:01:03;;;;;;;;;66.25;56.25;4.70;59.10;;;;;;5076958;28;8783;-75
2021/12/04 03:03:31;;;;;;;;;62.75;53.25;4.70;59.10;;;;;;5076708;28;8853;-75
2021/12/04 03:05:57;;;;;;;;;62.00;53.00;5.00;58.20;;;;;;5076783;28;9588;-76
2021/12/04 03:08:24;;;;;;;;;61.75;53.50;4.70;58.90;;;;;;5076676;28;8776;-76
2021/12/04 03:10:51;;;;;;;;;57.75;49.75;4.60;60.00;;;;;;5076884;28;8792;-76
2021/12/04 03:13:19;;;;;;;;;60.50;52.00;4.80;60.00;;;;;;5076807;28;8768;-76
2021/12/04 03:15:49;;;;;;;;;63.75;54.50;5.40;58.30;;;;;;5077063;28;8764;-76
2021/12/04 03:18:14;;;;;;;;;59.50;51.50;5.90;57.10;;;;;;5076444;28;8784;-76
2021/12/04 03:20:42;;;;;;;;;63.25;53.75;5.60;57.50;;;;;;5076394;28;8772;-76
2021/12/04 03:23:16;;;;;;;;;65.25;56.25;5.50;57.70;;;;;;5076561;28;8812;-77
2021/12/04 03:25:46;;;;;;;;;67.00;57.75;5.60;57.50;;;;;;5076576;28;8784;-76
2021/12/04 03:28:14;;;;;;;;;63.50;53.25;5.70;57.20;;;;;;5076786;28;8792;-76
2021/12/04 03:30:48;;;;;;;;;66.00;55.25;5.60;58.10;;;;;;5075755;28;8822;-76
2021/12/04 03:41:20;;;;;;;;;53.25;47.75;5.40;57.50;;;;;;5075936;28;8748;-76
2021/12/04 03:43:46;;;;;;;;;59.00;51.00;5.20;58.70;;;;;;5076269;28;9445;-77
2021/12/04 03:46:16;;;;;;;;;57.50;49.75;5.40;58.00;;;;;;5075928;28;8768;-77
2021/12/04 03:51:08;;;;;;;;;63.50;52.00;5.80;57.00;;;;;;5075822;28;8760;-76
2021/12/04 03:53:35;;;;;;;;;48.75;45.00;6.00;55.80;;;;;;5075764;28;8791;-77
2021/12/04 03:56:01;;;;;;;;;55.75;49.25;6.20;55.10;;;;;;5075931;28;8780;-76
2021/12/04 03:58:27;;;;;;;;;56.00;49.00;6.30;54.10;;;;;;5076097;28;8818;-76
2021/12/04 04:00:53;;;;;;;;;45.25;42.50;6.40;54.00;;;;;;5075746;28;8760;-77
2021/12/04 04:03:19;;;;;;;;;50.25;45.00;6.50;53.60;;;;;;5075720;28;8823;-76
2021/12/04 04:05:45;;;;;;;;;57.50;50.75;6.40;54.20;;;;;;5075323;28;8919;-76
2021/12/04 04:08:12;;;;;;;;;58.50;50.50;6.60;54.00;;;;;;5074331;28;8895;-76
2021/12/04 04:10:38;;;;;;;;;48.25;44.25;6.50;53.80;;;;;;5075773;28;8760;-76
2021/12/04 04:13:08;;;;;;;;;64.50;53.25;6.40;54.50;;;;;;5075331;28;8799;-77
2021/12/04 04:15:34;;;;;;;;;61.00;52.50;6.50;54.30;;;;;;5075385;28;9394;-76
2021/12/04 04:17:59;;;;;;;;;60.50;52.00;6.40;54.20;;;;;;5075268;28;8773;-76
2021/12/04 04:20:25;;;;;;;;;62.25;53.00;6.70;53.60;;;;;;5074228;28;8822;-76
2021/12/04 04:22:51;;;;;;;;;66.00;56.25;6.30;54.70;;;;;;5075116;28;8808;-76
2021/12/04 04:25:18;;;;;;;;;64.75;55.25;6.40;54.70;;;;;;5075444;28;8752;-76
2021/12/04 04:27:44;;;;;;;;;64.00;54.25;6.40;54.50;;;;;;5075221;28;8808;-77
2021/12/04 04:30:16;;;;;;;;;62.00;53.00;6.50;54.30;;;;;;5075068;28;8749;-77
2021/12/04 04:32:44;;;;;;;;;59.25;51.25;6.40;54.50;;;;;;5075270;28;8768;-77
2021/12/04 04:35:14;;;;;;;;;62.50;53.00;6.50;54.50;;;;;;5074040;28;8769;-77
2021/12/04 04:37:59;;;;;;;;;60.50;52.25;6.40;54.30;;;;;;5075190;28;8780;-76
2021/12/04 05:12:56;;;;;;;;;59.50;50.50;6.20;53.30;;;;;;5074504;28;8752;-76
2021/12/04 05:20:38;;;;;;;;;48.75;45.00;6.40;51.00;;;;;;5074613;28;8781;-76
2021/12/04 05:23:07;;;;;;;;;49.00;43.00;6.20;52.20;;;;;;5073189;28;8820;-76
2021/12/04 05:25:35;;;;;;;;;56.25;49.00;5.80;52.50;;;;;;5074556;28;8854;-75
2021/12/04 05:28:03;;;;;;;;;60.75;52.25;6.00;52.60;;;;;;5074451;28;8800;-76
2021/12/04 05:30:29;;;;;;;;;65.75;56.50;6.20;52.20;;;;;;5074297;28;8772;-77
2021/12/04 05:32:54;;;;;;;;;54.00;48.25;5.90;53.10;;;;;;5074334;28;8769;-77
2021/12/04 05:35:21;;;;;;;;;59.50;51.75;6.10;52.60;;;;;;5074395;28;8781;-77
2021/12/04 05:37:47;;;;;;;;;36.00;36.00;6.00;52.40;;;;;;5074442;28;8784;-76
2021/12/04 05:40:14;;;;;;;;;65.25;55.25;5.90;53.20;;;;;;5074155;28;8796;-77
2021/12/04 05:42:41;;;;;;;;;74.50;61.50;5.80;53.20;;;;;;5074307;28;8840;-76
2021/12/04 05:45:14;;;;;;;;;99.25;85.75;5.80;53.40;;;;;;5074112;28;8756;-77
2021/12/04 05:47:46;;;;;;;;;89.25;68.25;5.60;54.50;;;;;;5074350;28;8753;-76
2021/12/04 05:55:16;;;;;;;;;87.25;71.25;5.30;56.20;;;;;;5078301;28;8760;-76
2021/12/04 05:57:42;;;;;;;;;91.75;77.25;5.40;57.10;;;;;;5078218;28;8889;-77
2021/12/04 06:00:13;;;;;;;;;97.50;86.25;5.10;58.70;;;;;;5078174;28;9619;-76
2021/12/04 06:02:39;;;;;;;;;93.50;78.25;4.80;60.60;;;;;;5076881;28;8796;-76
2021/12/04 06:05:05;;;;;;;;;90.25;74.75;4.90;60.60;;;;;;5077864;28;8863;-75
2021/12/04 06:07:31;;;;;;;;;103.00;98.00;4.90;60.60;;;;;;5077599;28;8816;-76
2021/12/04 06:09:57;;;;;;;;;121.75;116.75;5.00;60.30;;;;;;5077914;28;9437;-76
2021/12/04 06:12:22;;;;;;;;;124.00;116.50;4.70;60.80;;;;;;5077784;28;8768;-76
2021/12/04 06:14:49;;;;;;;;;117.75;112.75;4.80;61.20;;;;;;5077609;28;8769;-76
2021/12/04 06:17:18;;;;;;;;;135.75;133.00;5.10;61.20;;;;;;5075963;28;8788;-69
2021/12/04 06:22:38;;;;;;;;;129.50;114.75;4.90;61.00;;;;;;5057492;28;8795;-75
2021/12/04 06:25:13;;;;;;;;;109.00;100.00;5.10;59.70;;;;;;5057537;28;9409;-75
2021/12/04 06:27:39;;;;;;;;;103.25;95.75;5.00;59.40;;;;;;5057608;28;8787;-74
2021/12/04 06:30:09;;;;;;;;;104.00;93.25;4.90;59.10;;;;;;5057317;28;8744;-75
2021/12/04 06:32:36;;;;;;;;;107.50;102.50;4.90;59.20;;;;;;5057335;28;8775;-75
2021/12/04 06:35:07;;;;;;;;;107.00;101.00;5.00;58.60;;;;;;5057280;28;8771;-73
2021/12/04 06:37:33;;;;;;;;;105.00;102.25;5.00;58.10;;;;;;5077321;28;8749;-74
2021/12/04 06:39:59;;;;;;;;;104.75;102.00;5.50;58.00;;;;;;5077177;28;8771;-74
2021/12/04 06:42:25;;;;;;;;;102.00;95.00;6.00;56.10;;;;;;5077082;28;9450;-74
2021/12/04 06:44:54;;;;;;;;;97.00;85.00;6.00;55.30;;;;;;5077159;28;8749;-73
2021/12/04 06:47:20;;;;;;;;;93.00;77.75;5.90;55.90;;;;;;5076972;28;8809;-74
2021/12/04 06:49:46;;;;;;;;;90.00;72.75;5.80;55.00;;;;;;5058790;28;8775;-74
2021/12/04 06:52:22;;;;;;;;;90.75;75.50;6.00;54.50;;;;;;5056876;28;8775;-75
2021/12/04 06:55:02;;;;;;;;;87.75;72.00;6.00;53.70;;;;;;5057170;28;8971;-74
2021/12/04 06:57:36;;;;;;;;;104.00;84.50;5.90;52.70;;;;;;5056982;28;8815;-75
2021/12/04 07:00:03;;;;;;;;;97.75;87.50;5.80;54.40;;;;;;5056784;28;8797;-74
2021/12/04 07:02:29;;;;;;;;;88.75;73.50;5.80;54.20;;;;;;5056860;28;8880;-74
2021/12/04 07:04:55;;;;;;;;;84.00;68.25;5.80;53.80;;;;;;5055776;28;8787;-75
2021/12/04 07:07:21;;;;;;;;;106.00;94.75;6.00;52.70;;;;;;5056553;28;8822;-74
2021/12/04 07:09:46;;;;;;;;;133.00;120.50;5.90;53.40;;;;;;5056567;28;8782;-74
2021/12/04 07:12:12;;;;;;;;;114.50;109.00;5.70;53.90;;;;;;5056833;28;8779;-75
2021/12/04 07:14:39;;;;;;;;;95.25;76.00;5.30;55.10;;;;;;5056332;28;9503;-75
2021/12/04 07:17:08;;;;;;;;;97.50;84.50;5.70;54.80;;;;;;5056600;28;8788;-74
2021/12/04 07:19:33;;;;;;;;;87.25;69.75;5.40;56.30;;;;;;5055641;28;8801;-74
2021/12/04 07:22:02;;;;;;;;;83.00;66.75;4.90;55.30;;;;;;5056353;28;8826;-74
2021/12/04 07:24:31;;;;;;;;;78.25;65.25;4.70;57.40;;;;;;5056547;28;8795;-74
2021/12/04 07:26:57;;;;;;;;;86.75;71.75;4.70;56.50;;;;;;5056251;28;8791;-74
2021/12/04 07:29:23;;;;;;;;;83.75;69.00;5.20;55.60;;;;;;5056313;28;8824;-74
2021/12/04 07:31:49;;;;;;;;;94.00;75.75;5.10;54.40;;;;;;5057774;28;8788;-74
2021/12/04 07:34:15;;;;;;;;;102.25;89.25;5.60;54.60;;;;;;5057945;28;9587;-75
2021/12/04 07:36:41;;;;;;;;;93.00;80.25;5.80;56.80;;;;;;5056059;28;8787;-75
2021/12/04 07:39:07;;;;;;;;;104.50;92.00;5.60;57.10;;;;;;5055994;28;8872;-76
2021/12/04 07:41:38;;;;;;;;;102.00;97.25;5.30;58.40;;;;;;5055857;28;8775;-77
2021/12/04 07:44:08;;;;;;;;;107.00;94.25;5.40;59.60;;;;;;5055963;28;8759;-76
2021/12/04 07:46:34;;;;;;;;;94.75;85.25;5.60;59.60;;;;;;5054799;28;8779;-75
2021/12/04 07:49:00;;;;;;;;;99.75;88.75;5.50;59.60;;;;;;5055874;28;8806;-75
2021/12/04 07:51:26;;;;;;;;;88.50;74.75;5.70;58.90;;;;;;5055984;28;8759;-76
2021/12/04 07:53:52;;;;;;;;;84.50;69.00;5.50;58.20;;;;;;5054665;28;8822;-76
2021/12/04 07:56:18;;;;;;;;;93.00;75.75;5.50;57.40;;;;;;5055796;28;8771;-76
2021/12/04 07:58:43;;;;;;;;;88.00;74.50;5.60;58.10;;;;;;5062753;28;8785;-76
2021/12/04 08:01:10;;;;;;;;;78.75;64.50;5.90;57.70;;;;;;5075811;28;8776;-76
2021/12/04 08:03:36;;;;;;;;;84.50;68.75;6.40;56.40;;;;;;5075520;28;8800;-76
2021/12/04 08:06:03;;;;;;;;;78.25;64.25;6.20;55.70;;;;;;5075281;28;8801;-75
2021/12/04 08:08:29;;;;;;;;;81.00;66.00;5.90;54.70;;;;;;5075708;28;8776;-74
2021/12/04 08:10:54;;;;;;;;;86.00;67.25;5.70;55.50;;;;;;5075453;28;8772;-73
2021/12/04 08:13:20;;;;;;;;;87.50;72.50;5.50;55.80;;;;;;5075396;28;8772;-73
2021/12/04 08:15:46;;;;;;;;;95.50;81.00;5.70;55.40;;;;;;5072794;28;8791;-73
2021/12/04 08:18:12;;;;;;;;;84.00;66.25;5.40;56.20;;;;;;5065202;28;8854;-73
2021/12/04 08:20:38;;;;;;;;;86.25;67.00;5.40;56.70;;;;;;5066429;28;8869;-74
2021/12/04 08:23:07;;;;;;;;;95.00;83.25;5.40;55.80;;;;;;5070196;28;8814;-73
2021/12/04 08:25:33;;;;;;;;;90.00;76.75;5.80;56.00;;;;;;5071607;28;9417;-74
2021/12/04 08:28:01;;;;;;;;;92.50;73.25;6.20;54.50;;;;;;5069919;28;8845;-70
2021/12/04 08:30:29;;;;;;;;;85.75;69.00;6.20;53.70;;;;;;5071496;28;8784;-68
2021/12/04 08:32:56;;;;;;;;;84.50;68.00;6.00;54.40;;;;;;5066828;28;8779;-72
2021/12/04 08:35:25;;;;;;;;;87.50;67.00;6.20;53.40;;;;;;5062501;28;8774;-71
2021/12/04 08:37:52;;;;;;;;;85.25;70.25;6.40;52.90;;;;;;5059371;28;8774;-72
2021/12/04 08:40:18;;;;;;;;;83.00;65.25;6.00;54.90;;;;;;5058477;28;8763;-69
2021/12/04 08:42:46;;;;;;;;;89.25;73.00;5.90;56.40;;;;;;5071278;28;8903;-70
2021/12/04 08:45:14;;;;;;;;;89.75;71.25;5.90;56.30;;;;;;5056829;28;8796;-69
2021/12/04 08:47:41;;;;;;;;;94.50;78.00;5.90;56.70;;;;;;5067455;28;8781;-69
2021/12/04 08:50:13;;;;;;;;;102.50;99.25;6.10;55.80;;;;;;5074454;28;8779;-69
2021/12/04 08:52:41;;;;;;;;;115.00;109.50;6.40;54.00;;;;;;5074424;28;8841;-68
2021/12/04 08:55:07;;;;;;;;;159.00;140.75;6.10;53.70;;;;;;5074494;28;8791;-68
2021/12/04 08:57:33;;;;;;;;;149.25;131.50;6.40;54.40;;;;;;5074361;28;8801;-67
2021/12/04 08:59:59;;;;;;;;;144.00;134.25;6.40;54.30;;;;;;5054439;28;8793;-67
2021/12/04 09:02:26;;;;;;;;;97.25;80.25;7.00;52.20;;;;;;5073168;28;8820;-67
2021/12/04 09:04:52;;;;;;;;;147.75;129.25;6.40;52.90;;;;;;5072287;28;8773;-67
2021/12/04 09:07:19;;;;;;;;;94.00;78.25;6.70;51.80;;;;;;5074324;28;8804;-67
2021/12/04 09:09:46;;;;;;;;;51.50;43.75;7.00;51.70;;;;;;5074466;28;8768;-67
2021/12/04 09:12:14;;;;;;;;;73.50;55.50;7.10;50.50;;;;;;5074272;28;8822;-67
2021/12/04 09:14:43;;;;;;;;;62.25;50.50;7.20;50.70;;;;;;5074187;28;8788;-67
2021/12/04 09:17:11;;;;;;;;;61.75;52.25;7.00;50.30;;;;;;5074021;28;8834;-68
2021/12/04 09:19:37;;;;;;;;;76.25;61.00;6.90;51.50;;;;;;5074250;28;8756;-67
2021/12/04 09:22:07;;;;;;;;;88.75;74.25;6.60;54.30;;;;;;5074140;28;8796;-67
2021/12/04 09:24:41;;;;;;;;;92.75;73.75;6.80;54.20;;;;;;5074209;28;9442;-68
2021/12/04 10:02:20;;;;;;;;;55.25;46.75;8.50;53.50;;;;;;5073249;28;8826;-67
2021/12/04 10:13:43;;;;;;;;;46.33;39.00;16.70;35.70;;;;;;5093950;28;8813;-68
2021/12/04 10:21:53;;;;;;;;;45.33;38.33;19.60;30.30;;;;;;5073907;28;8744;-69
2021/12/04 10:32:58;;;;;;;;;38.00;34.33;21.50;27.10;;;;;;5048566;28;8795;-68
2021/12/04 10:35:24;;;;;;;;;42.67;37.67;22.50;26.00;;;;;;5072289;28;8760;-68
2021/12/04 10:37:52;;;;;;;;;43.67;38.00;22.30;26.00;;;;;;5065282;28;8803;-65
2021/12/04 10:40:21;;;;;;;;;43.33;38.33;22.40;26.10;;;;;;5072590;28;8756;-65
2021/12/04 10:42:53;;;;;;;;;40.33;36.33;22.70;25.90;;;;;;5074007;28;8816;-68
2021/12/04 10:45:32;;;;;;;;;55.33;46.67;21.70;26.90;;;;;;5064250;28;8835;-68
2021/12/04 10:48:01;;;;;;;;;41.67;37.00;22.50;25.80;;;;;;5068857;28;8764;-68
2021/12/04 10:53:23;;;;;;;;;45.67;39.67;22.40;25.90;;;;;;5055515;28;8802;-68
2021/12/04 10:55:56;;;;;;;;;42.33;37.00;23.90;24.50;;;;;;5069218;28;8813;-70
2021/12/04 11:43:15;;;;;;;;;51.00;43.67;22.80;25.90;;;;;;5058833;28;8843;-69
2021/12/04 11:45:47;;;;;;;;;54.00;45.75;22.10;26.60;;;;;;5060179;28;8795;-69
2021/12/04 11:48:13;;;;;;;;;57.00;48.33;22.20;26.80;;;;;;5065570;28;8783;-70
2021/12/04 11:50:49;;;;;;;;;55.67;46.67;22.00;26.90;;;;;;5057048;28;8827;-70
2021/12/04 11:53:17;;;;;;;;;49.67;43.00;22.90;25.80;;;;;;5063605;28;8788;-71
2021/12/04 11:55:46;;;;;;;;;54.75;45.25;20.40;29.20;;;;;;5063681;28;8815;-70
2021/12/04 11:58:31;;;;;;;;;58.75;48.75;19.90;30.20;;;;;;5063869;28;8805;-72
2021/12/04 12:01:05;;;;;;;;;53.25;46.00;20.50;29.10;;;;;;5071774;28;9452;-78
2021/12/04 12:03:33;;;;;;;;;51.25;41.50;21.90;27.50;;;;;;5069883;28;8845;-73
2021/12/04 12:06:06;;;;;;;;;54.00;46.00;21.50;27.60;;;;;;5074056;28;8801;-73
2021/12/04 12:08:35;;;;;;;;;59.00;49.50;20.90;28.00;;;;;;5063306;28;8772;-70
2021/12/04 12:11:05;;;;;;;;;54.75;47.25;20.20;28.90;;;;;;5063070;28;8806;-70
2021/12/04 12:13:41;;;;;;;;;54.00;46.50;19.70;30.00;;;;;;5064231;28;8803;-72
2021/12/04 12:16:10;;;;;;;;;55.25;46.50;19.10;31.10;;;;;;5065419;28;8851;-73
2021/12/04 12:18:57;;;;;;;;;63.00;53.00;18.70;31.90;;;;;;5067388;28;8795;-71
2021/12/04 12:21:30;;;;;;;;;53.75;46.50;18.30;33.10;;;;;;5055210;28;8794;-72
2021/12/04 12:33:05;;;;;;;;;65.50;54.00;17.80;34.00;;;;;;5075011;28;8752;-72
2021/12/04 12:38:32;;;;;;;;;56.75;48.75;17.00;35.70;;;;;;5061922;28;8768;-72
2021/12/04 12:41:21;;;;;;;;;67.00;54.00;16.30;36.00;;;;;;5072574;28;8823;-73
2021/12/04 12:44:08;;;;;;;;;54.50;46.00;16.30;37.50;;;;;;5074075;28;8824;-75
2021/12/04 12:46:52;;;;;;;;;54.00;45.25;15.10;38.30;;;;;;5074615;28;8780;-73
2021/12/04 12:49:40;;;;;;;;;53.50;44.50;15.30;38.70;;;;;;5068466;28;8782;-73
2021/12/04 12:52:14;;;;;;;;;60.75;51.25;15.80;37.40;;;;;;5061363;28;8797;-72
2021/12/04 12:54:52;;;;;;;;;50.50;42.50;16.10;37.60;;;;;;5061763;28;8920;-71
2021/12/04 12:57:43;;;;;;;;;57.50;48.75;16.90;35.30;;;;;;5057005;28;8799;-71
2021/12/04 13:11:57;;;;;;;;;58.25;49.50;18.30;32.90;;;;;;5064157;28;8768;-72
2021/12/04 13:14:46;;;;;;;;;60.00;50.25;18.20;32.30;;;;;;5064671;28;9422;-72
2021/12/04 13:17:18;;;;;;;;;53.50;45.00;18.20;31.70;;;;;;5074397;28;8761;-70
2021/12/04 13:19:48;;;;;;;;;50.75;43.25;18.30;32.00;;;;;;5073943;28;8787;-71
2021/12/04 13:22:27;;;;;;;;;60.00;50.00;18.10;31.60;;;;;;5071973;28;8815;-72
2021/12/04 13:25:01;;;;;;;;;56.25;47.25;17.20;33.60;;;;;;5063250;28;8791;-76
2021/12/04 13:30:06;;;;;;;;;54.50;46.50;17.90;32.90;;;;;;5071879;28;8951;-75
2021/12/04 13:32:41;;;;;;;;;54.75;45.50;18.00;32.80;;;;;;5067727;28;8800;-75
2021/12/04 13:35:15;;;;;;;;;55.50;47.25;17.80;32.20;;;;;;5062063;28;8885;-71
2021/12/04 13:37:41;;;;;;;;;59.75;49.75;17.10;33.90;;;;;;5073116;28;8827;-72
2021/12/04 13:40:13;;;;;;;;;65.25;53.50;16.20;36.30;;;;;;5073955;28;8776;-68
2021/12/04 13:42:40;;;;;;;;;68.00;55.75;15.40;37.70;;;;;;5061379;28;8806;-77
2021/12/04 13:45:09;;;;;;;;;63.00;52.00;14.70;38.90;;;;;;5054209;28;9429;-75
2021/12/04 13:47:36;;;;;;;;;62.00;50.25;14.50;39.10;;;;;;5054157;28;8774;-75
2021/12/04 13:50:50;;;;;;;;;60.00;48.00;13.70;41.00;;;;;;5060094;28;8780;-77
2021/12/04 13:53:13;;;;;;;;;66.50;54.25;12.90;43.70;;;;;;5067742;28;8938;-75
2021/12/04 13:55:42;;;;;;;;;66.25;55.00;13.00;43.10;;;;;;5073821;28;8756;-74
2021/12/04 13:58:08;;;;;;;;;65.50;53.00;12.40;44.80;;;;;;5074081;28;8927;-74
2021/12/04 14:00:34;;;;;;;;;69.00;57.00;12.30;45.10;;;;;;5073892;28;8772;-74
2021/12/04 14:03:01;;;;;;;;;67.50;54.00;11.80;46.70;;;;;;5073835;28;8880;-75
2021/12/04 14:05:28;;;;;;;;;74.00;61.50;12.30;46.10;;;;;;5091843;28;8770;-71
2021/12/04 14:07:57;;;;;;;;;67.25;55.50;12.60;45.60;;;;;;5093413;28;8766;-76
2021/12/04 14:10:29;;;;;;;;;75.00;63.00;12.60;45.20;;;;;;5093916;28;8787;-73
2021/12/04 14:12:57;;;;;;;;;78.25;68.50;12.70;44.60;;;;;;5094046;28;8765;-70
2021/12/04 14:15:24;;;;;;;;;83.00;75.75;12.50;45.40;;;;;;5096468;28;8770;-71
2021/12/04 14:17:58;;;;;;;;;93.25;80.25;12.20;45.80;;;;;;5096757;28;8789;-69
2021/12/04 14:20:25;;;;;;;;;83.50;70.75;12.10;46.10;;;;;;5096953;28;8753;-74
2021/12/04 14:22:54;;;;;;;;;78.00;66.25;12.10;46.50;;;;;;5097335;28;8844;-68
2021/12/04 14:25:21;;;;;;;;;77.75;65.75;12.00;46.30;;;;;;5089032;28;8764;-69
2021/12/04 14:27:49;;;;;;;;;83.00;74.25;11.90;46.80;;;;;;5069860;28;8820;-70
2021/12/04 14:30:21;;;;;;;;;93.50;85.25;12.00;47.90;;;;;;5077092;28;8797;-71
2021/12/04 14:32:55;;;;;;;;;87.75;73.50;11.80;47.00;;;;;;5077431;28;8904;-73
2021/12/04 14:35:25;;;;;;;;;88.00;84.50;11.70;48.20;;;;;;5076986;28;8777;-76
2021/12/04 14:37:53;;;;;;;;;91.75;88.75;11.50;48.30;;;;;;5076661;28;8850;-73
2021/12/04 14:40:25;;;;;;;;;92.25;90.00;11.40;48.60;;;;;;5077533;28;8772;-76
2021/12/04 14:42:52;;;;;;;;;90.75;87.50;11.40;48.30;;;;;;5075990;28;9560;-74
2021/12/04 14:45:22;;;;;;;;;93.00;91.00;11.20;49.20;;;;;;5077010;28;8874;-74
2021/12/04 14:47:51;;;;;;;;;98.50;87.50;11.30;49.50;;;;;;5077047;28;8776;-73
2021/12/04 14:50:19;;;;;;;;;94.25;93.00;11.00;50.50;;;;;;5076787;28;8878;-73
2021/12/04 14:52:53;;;;;;;;;105.75;100.50;10.90;50.90;;;;;;5076176;28;8780;-65
2021/12/04 14:55:33;;;;;;;;;95.25;93.75;11.00;50.30;;;;;;5076797;28;8772;-67
2021/12/04 14:58:01;;;;;;;;;98.00;90.00;11.00;50.80;;;;;;5068048;28;8813;-68
2021/12/04 15:00:37;;;;;;;;;94.75;93.00;11.00;50.90;;;;;;5068733;28;8788;-68
2021/12/04 15:03:09;;;;;;;;;97.75;94.00;11.00;50.80;;;;;;5071442;28;8808;-68
2021/12/04 15:05:45;;;;;;;;;94.50;92.00;10.70;51.20;;;;;;5076689;28;8899;-72
2021/12/04 15:08:17;;;;;;;;;95.50;88.75;10.40;52.20;;;;;;5069951;28;8774;-68
2021/12/04 15:10:47;;;;;;;;;96.00;95.25;10.50;52.50;;;;;;5065819;28;8780;-67
2021/12/04 15:13:23;;;;;;;;;91.25;84.75;10.20;53.40;;;;;;5065216;28;8780;-69
2021/12/04 15:15:52;;;;;;;;;99.25;96.00;9.70;55.00;;;;;;5068073;28;8795;-72
2021/12/04 15:18:21;;;;;;;;;110.75;101.25;10.00;55.00;;;;;;5061681;28;9406;-69
2021/12/04 15:20:59;;;;;;;;;97.50;92.25;10.20;54.10;;;;;;5067078;28;8808;-68
2021/12/04 15:23:28;;;;;;;;;112.50;108.25;10.00;54.60;;;;;;5066281;28;8795;-67
2021/12/04 15:25:56;;;;;;;;;121.75;116.25;10.00;54.30;;;;;;5062647;28;8770;-71
2021/12/04 15:28:25;;;;;;;;;122.25;117.00;10.10;54.00;;;;;;5065446;28;8969;-70
2021/12/04 15:30:55;;;;;;;;;125.25;120.25;10.30;53.40;;;;;;5069772;28;8765;-71
2021/12/04 15:33:23;;;;;;;;;108.75;107.00;10.30;53.70;;;;;;5074297;28;8807;-71
2021/12/04 15:35:51;;;;;;;;;132.50;127.00;10.40;53.40;;;;;;5070843;28;9465;-71
2021/12/04 15:38:34;;;;;;;;;141.75;139.25;10.50;52.50;;;;;;5055428;28;8747;-72
2021/12/04 15:41:12;;;;;;;;;138.25;136.25;10.30;53.20;;;;;;5055994;28;8864;-76
2021/12/04 15:44:02;;;;;;;;;146.50;141.50;10.10;53.80;;;;;;5061213;28;9470;-73
2021/12/04 15:46:45;;;;;;;;;148.25;140.00;9.90;55.20;;;;;;5060872;28;8815;-73
2021/12/04 15:54:39;;;;;;;;;157.00;153.25;9.90;54.50;;;;;;5060879;28;9401;-72
2021/12/04 15:57:16;;;;;;;;;159.50;152.75;10.10;53.60;;;;;;5068878;28;8870;-72
2021/12/04 15:59:47;;;;;;;;;154.25;152.00;10.20;54.10;;;;;;5064418;28;8763;-72
2021/12/04 16:02:15;;;;;;;;;161.50;157.50;10.20;54.00;;;;;;5055364;28;8913;-73
2021/12/04 16:04:43;;;;;;;;;181.50;170.25;10.00;54.50;;;;;;5066287;28;8800;-74
2021/12/04 16:07:09;;;;;;;;;165.75;159.50;10.20;53.60;;;;;;5065606;28;8796;-74
2021/12/04 16:09:39;;;;;;;;;230.75;220.00;10.00;55.00;;;;;;5068964;28;8778;-73
2021/12/04 16:12:09;;;;;;;;;215.75;196.75;10.00;54.30;;;;;;5068195;28;8772;-71
2021/12/04 16:14:38;;;;;;;;;222.25;211.25;9.70;55.60;;;;;;5061639;28;8764;-73
2021/12/04 16:17:07;;;;;;;;;214.25;201.75;9.80;55.30;;;;;;5055281;28;8763;-72